Onde está Findal en Portugal?

Findal está situado na região Lisboa em Portugal!

Buscar o nome de uma cidade:

Findlingsgarten Bad Malente, Findicak, Findikli, Findlinge, Findikcukuru

Aqui você vai encontrar a localização de Findal em um mapa.
Para ver como ele atualmente parece, abaixo estão algumas fotos da região, com webcams online.
Você também pode encontrar a distância para as principais cidades da região e de cidades do resto do Portugal.

Todos os lugares do mundo chamado .

new

Onde está Findal no mapa?


Webcams perto Findal

Benavente > North-East: AIrport, METAR: BENAV 180005Z 36004KT 17/14 Q1015.


Benavente > North-East: AIrport, METAR: BENAV 180005Z 36004KT 17/14 Q1015 - Dia
Actual
Benavente > North-East: AIrport, METAR: BENAV 180005Z 36004KT 17/14 Q1015 - Actual

Vasco Carão > South: Garrocheira, Benavente - Airport.


Vasco Carão > South: Garrocheira, Benavente - Airport - Dia
Actual
Vasco Carão > South: Garrocheira, Benavente - Airport - Actual

Silveira: Santa Cruz (Live HD°).


Silveira: Santa Cruz (Live HD°) - Dia
Actual
Silveira: Santa Cruz (Live HD°) - Actual

Webcams provided by webcams.travel

Distâncias

Onde está Findal em relação a outros lugares?

Top 10 cidades em Lisboa e distância de Findal.

Cidade#Populaçãokmmilhas
Lisbon15177984226
Amadora21788564025
Queluz31033984226
Loures4662303119
Rio de Mouro5546954327
Odivelas6546233522
São Domingos de Rana7467175031
Cascais8364365534
Alcabideche9333155132
Póvoa de Santa Iria10289002616

Top 10 cidades em Portugal e distância de Findal.

Cidade # Populaçãokmmilhas
Lisbon15177984226
Porto2249630232144
Amadora31788564025
Braga4121393278173
Setúbal51171096339
Coimbra610658013584
Queluz71033984226
Funchal8980411009627
Vila Nova de Gaia970810230143
Loures10662303119